createdAt,value
2023-04-13T00:02:28.016Z,4.86
2023-04-13T00:05:17.218Z,4.64
2023-04-13T00:08:06.057Z,4.66
2023-04-13T00:10:54.629Z,4.72
2023-04-13T00:13:43.247Z,4.59
2023-04-13T00:16:31.933Z,4.70
2023-04-13T00:19:19.640Z,4.98
2023-04-13T00:22:09.831Z,4.79
2023-04-13T00:25:00.092Z,4.99
2023-04-13T00:27:50.768Z,5.08
2023-04-13T00:30:38.617Z,5.18
2023-04-13T00:36:31.179Z,4.80
2023-04-13T00:39:23.336Z,4.54
2023-04-13T00:42:11.376Z,4.33
2023-04-13T00:44:59.046Z,4.41
2023-04-13T00:47:49.004Z,4.37
2023-04-13T00:50:37.348Z,4.27
2023-04-13T00:53:25.046Z,4.27
2023-04-13T00:56:13.400Z,4.24
2023-04-13T00:59:01.183Z,4.32
2023-04-13T01:01:56.661Z,4.53
2023-04-13T01:04:46.059Z,4.50
2023-04-13T01:07:57.882Z,4.89
2023-04-13T01:11:06.237Z,4.39
2023-04-13T01:14:31.841Z,4.89
2023-04-13T01:17:23.832Z,4.76
2023-04-13T01:20:16.545Z,4.64
2023-04-13T01:23:09.861Z,4.52
2023-04-13T01:26:01.787Z,4.50
2023-04-13T01:28:51.552Z,4.61
2023-04-13T01:31:40.842Z,3.90
2023-04-13T01:34:30.327Z,4.58
2023-04-13T01:37:18.375Z,4.33
2023-04-13T01:40:12.988Z,4.31
2023-04-13T01:43:05.117Z,4.06
2023-04-13T01:46:14.178Z,4.16
2023-04-13T01:49:31.077Z,3.97
2023-04-13T01:52:28.082Z,3.95
2023-04-13T01:55:16.461Z,3.88
2023-04-13T01:58:13.843Z,3.72
2023-04-13T02:01:08.045Z,3.88
2023-04-13T02:03:55.836Z,3.72
2023-04-13T02:06:48.541Z,3.67
2023-04-13T02:09:36.221Z,3.60
2023-04-13T02:12:24.105Z,3.39
2023-04-13T02:15:11.928Z,3.34
2023-04-13T02:18:00.170Z,3.31
2023-04-13T02:20:47.867Z,3.45
2023-04-13T02:23:41.513Z,3.40
2023-04-13T02:26:29.535Z,3.51
2023-04-13T02:29:17.854Z,3.46
2023-04-13T02:32:07.409Z,3.18
2023-04-13T02:34:55.614Z,3.24
2023-04-13T02:37:43.452Z,3.06
2023-04-13T02:40:34.088Z,2.88
2023-04-13T02:43:22.568Z,2.97
2023-04-13T02:46:10.792Z,2.91
2023-04-13T02:49:00.368Z,2.89
2023-04-13T02:51:52.480Z,2.59
2023-04-13T02:54:47.285Z,2.65
2023-04-13T02:57:35.844Z,2.87
2023-04-13T03:00:26.044Z,2.78
2023-04-13T03:03:20.896Z,2.73
2023-04-13T03:06:10.235Z,2.79
2023-04-13T03:09:07.858Z,2.68
2023-04-13T03:12:03.976Z,2.93
2023-04-13T03:14:52.326Z,2.66
2023-04-13T03:17:44.219Z,2.69
2023-04-13T03:20:37.111Z,2.66
2023-04-13T03:23:24.724Z,2.62
2023-04-13T03:26:13.184Z,2.57
2023-04-13T03:29:01.578Z,2.53
2023-04-13T03:31:52.727Z,2.45
2023-04-13T03:34:44.551Z,2.50
2023-04-13T03:37:40.604Z,2.45
2023-04-13T03:40:36.634Z,2.46
2023-04-13T03:43:24.398Z,2.67
2023-04-13T03:46:21.037Z,2.66
2023-04-13T03:49:11.131Z,2.53
2023-04-13T03:51:59.507Z,2.45
2023-04-13T03:54:51.577Z,2.19
2023-04-13T03:57:39.421Z,2.29
2023-04-13T04:00:30.843Z,2.36
2023-04-13T04:03:30.645Z,2.40
2023-04-13T04:06:24.933Z,2.45
2023-04-13T04:09:20.941Z,2.36
2023-04-13T04:12:09.233Z,2.44
2023-04-13T04:15:01.473Z,2.50
2023-04-13T04:17:52.609Z,2.50
2023-04-13T04:20:40.499Z,2.63
2023-04-13T04:23:30.648Z,2.69
2023-04-13T04:26:26.000Z,2.76
2023-04-13T04:29:37.169Z,2.84
2023-04-13T04:32:42.802Z,2.98
2023-04-13T04:35:35.528Z,3.14
2023-04-13T04:38:27.483Z,3.30
2023-04-13T04:41:21.169Z,3.34
2023-04-13T04:44:17.091Z,3.95
2023-04-13T04:47:06.209Z,5.21
2023-04-13T04:50:02.192Z,6.27
2023-04-13T04:52:54.695Z,7.04
2023-04-13T04:55:46.748Z,7.79
2023-04-13T04:58:46.756Z,8.93
2023-04-13T05:01:35.256Z,9.29
2023-04-13T05:04:29.222Z,9.35
2023-04-13T05:07:18.033Z,9.94
2023-04-13T05:10:29.824Z,10.29
2023-04-13T05:13:18.664Z,10.41
2023-04-13T05:16:16.824Z,10.87
2023-04-13T05:19:08.137Z,11.09
2023-04-13T05:22:07.163Z,12.03
2023-04-13T05:25:01.288Z,12.30
2023-04-13T05:27:50.397Z,12.75
2023-04-13T05:30:38.199Z,13.22
2023-04-13T05:33:26.778Z,13.59
2023-04-13T05:36:17.256Z,14.05
2023-04-13T05:39:06.212Z,14.31
2023-04-13T05:41:56.435Z,14.05
2023-04-13T05:44:46.816Z,14.45
2023-04-13T05:47:38.937Z,14.93
2023-04-13T05:50:31.740Z,14.87
2023-04-13T05:53:19.429Z,15.39
2023-04-13T05:56:11.335Z,15.33
2023-04-13T05:59:04.553Z,15.02
2023-04-13T06:01:53.794Z,15.02
2023-04-13T06:04:43.680Z,15.48
2023-04-13T06:07:32.100Z,15.77
2023-04-13T06:10:19.791Z,15.81
2023-04-13T06:13:08.475Z,15.68
2023-04-13T06:15:56.183Z,15.36
2023-04-13T06:18:43.852Z,15.41
2023-04-13T06:21:33.765Z,15.75
2023-04-13T06:24:21.457Z,15.86
2023-04-13T06:27:09.205Z,15.84
2023-04-13T06:30:00.352Z,16.32
2023-04-13T06:32:52.141Z,16.48
2023-04-13T06:35:42.746Z,16.84
2023-04-13T06:38:32.145Z,16.46
2023-04-13T06:41:25.518Z,15.36
2023-04-13T06:44:13.196Z,15.56
2023-04-13T06:47:17.980Z,15.62
2023-04-13T06:50:08.053Z,15.92
2023-04-13T06:53:00.109Z,16.20
2023-04-13T06:55:51.979Z,17.13
2023-04-13T06:58:40.134Z,17.28
2023-04-13T07:01:28.755Z,16.51
2023-04-13T07:04:18.100Z,17.45
2023-04-13T07:07:06.666Z,18.34
2023-04-13T07:09:54.724Z,17.40
2023-04-13T07:12:42.797Z,17.84
2023-04-13T07:15:31.826Z,18.69
2023-04-13T07:18:19.533Z,18.25
2023-04-13T07:21:09.306Z,18.73
2023-04-13T07:24:15.511Z,18.96
2023-04-13T07:27:04.728Z,19.65
2023-04-13T07:29:52.725Z,19.34
2023-04-13T07:32:43.649Z,19.75
2023-04-13T07:35:31.845Z,19.75
2023-04-13T07:38:24.016Z,19.74
2023-04-13T07:41:33.135Z,19.42
2023-04-13T07:44:24.873Z,19.60
2023-04-13T07:47:14.357Z,19.61
2023-04-13T07:50:06.475Z,19.48
2023-04-13T07:52:55.385Z,20.09
2023-04-13T07:55:44.672Z,20.00
2023-04-13T07:58:33.489Z,20.67
2023-04-13T08:01:22.335Z,20.56
2023-04-13T08:04:10.722Z,20.48
2023-04-13T08:07:07.503Z,20.58
2023-04-13T08:09:55.722Z,19.79
2023-04-13T08:12:44.011Z,19.73
2023-04-13T08:16:15.679Z,20.08
2023-04-13T08:19:06.900Z,20.64
2023-04-13T08:21:59.014Z,21.58
2023-04-13T08:24:46.640Z,20.95
2023-04-13T08:27:34.528Z,21.33
2023-04-13T08:30:23.080Z,21.16
2023-04-13T08:33:18.829Z,20.56
2023-04-13T08:36:07.892Z,20.76
2023-04-13T08:38:56.314Z,20.31
2023-04-13T08:41:48.764Z,21.01
2023-04-13T08:44:43.203Z,22.02
2023-04-13T08:47:31.839Z,21.67
2023-04-13T08:50:21.833Z,21.43
2023-04-13T08:53:13.087Z,22.55
2023-04-13T08:56:04.179Z,22.89
2023-04-13T08:58:59.236Z,23.11
2023-04-13T09:01:49.481Z,22.57
2023-04-13T09:04:44.388Z,22.09
2023-04-13T09:07:36.984Z,22.24
2023-04-13T09:10:31.353Z,22.20
2023-04-13T09:13:19.222Z,22.05
2023-04-13T09:16:07.609Z,21.97
2023-04-13T09:19:01.398Z,22.00
2023-04-13T09:21:51.088Z,22.29
2023-04-13T09:24:42.656Z,22.30
2023-04-13T09:27:30.430Z,22.74
2023-04-13T09:30:21.745Z,22.47
2023-04-13T09:33:11.372Z,23.29
2023-04-13T09:36:09.578Z,22.52
2023-04-13T09:38:58.334Z,22.16
2023-04-13T09:41:49.771Z,22.35
2023-04-13T09:44:37.616Z,22.48
2023-04-13T09:47:26.415Z,22.60
2023-04-13T09:50:28.246Z,22.57
2023-04-13T09:53:15.945Z,22.55
2023-04-13T09:56:03.907Z,22.75
2023-04-13T09:58:51.883Z,22.61
2023-04-13T10:01:41.312Z,23.43
2023-04-13T10:04:31.344Z,22.84
2023-04-13T10:07:19.918Z,23.14
2023-04-13T10:10:08.401Z,22.92
2023-04-13T10:12:59.337Z,22.73
2023-04-13T10:16:06.341Z,23.08
2023-04-13T10:19:08.102Z,23.15
2023-04-13T10:21:56.710Z,22.04
2023-04-13T10:24:44.958Z,21.98
2023-04-13T10:27:32.947Z,23.48
2023-04-13T10:30:22.219Z,23.80
2023-04-13T10:33:16.023Z,23.33
2023-04-13T10:36:03.803Z,23.21
2023-04-13T10:38:51.527Z,22.28
2023-04-13T10:41:39.271Z,22.97
2023-04-13T10:44:27.225Z,23.33
2023-04-13T10:47:19.223Z,23.01
2023-04-13T10:50:20.234Z,22.32
2023-04-13T10:53:09.359Z,22.64
2023-04-13T10:56:01.955Z,22.94
2023-04-13T10:58:54.313Z,22.86
2023-04-13T11:01:48.367Z,22.79
2023-04-13T11:04:50.139Z,23.40
2023-04-13T11:07:38.946Z,23.87
2023-04-13T11:10:29.942Z,23.35
2023-04-13T11:13:22.650Z,24.30
2023-04-13T11:16:11.107Z,23.79
2023-04-13T11:19:03.758Z,23.83
2023-04-13T11:21:56.678Z,23.16
2023-04-13T11:24:46.132Z,23.44
2023-04-13T11:27:38.150Z,23.10
2023-04-13T11:30:27.060Z,23.80
2023-04-13T11:37:20.417Z,23.31
2023-04-13T11:40:20.584Z,23.45
2023-04-13T11:43:08.703Z,23.52
2023-04-13T11:45:56.528Z,23.50
2023-04-13T11:48:44.639Z,23.19
2023-04-13T11:51:33.391Z,22.04
2023-04-13T11:54:29.178Z,21.94
2023-04-13T11:57:18.365Z,22.43
2023-04-13T12:00:14.075Z,22.90
2023-04-13T12:03:34.671Z,23.20
2023-04-13T12:06:22.277Z,22.57
2023-04-13T12:09:15.817Z,22.12
2023-04-13T12:15:20.974Z,22.33
2023-04-13T12:18:15.736Z,22.48
2023-04-13T12:21:06.735Z,22.73
2023-04-13T12:24:02.027Z,22.43
2023-04-13T12:29:41.673Z,22.63
2023-04-13T12:32:30.844Z,22.49
2023-04-13T12:35:21.786Z,22.65
2023-04-13T12:41:33.912Z,22.65
2023-04-13T12:44:21.586Z,23.35
2023-04-13T12:47:09.234Z,23.43
2023-04-13T12:49:56.930Z,23.34
2023-04-13T12:52:44.744Z,23.26
2023-04-13T12:55:32.330Z,22.91
2023-04-13T12:58:20.065Z,23.18
2023-04-13T13:01:08.628Z,23.21
2023-04-13T13:03:56.359Z,22.86
2023-04-13T13:06:43.991Z,22.76
2023-04-13T13:09:32.283Z,22.50
2023-04-13T13:12:19.986Z,22.67
2023-04-13T13:15:10.760Z,22.47
2023-04-13T13:17:58.446Z,21.94
2023-04-13T13:20:46.306Z,22.22
2023-04-13T13:23:33.820Z,21.70
2023-04-13T13:26:24.330Z,22.09
2023-04-13T13:29:14.013Z,21.89
2023-04-13T13:32:01.759Z,22.32
2023-04-13T13:34:49.506Z,22.05
2023-04-13T13:37:37.517Z,22.26
2023-04-13T13:40:28.223Z,22.61
2023-04-13T13:43:18.263Z,22.62
2023-04-13T13:46:06.995Z,22.51
2023-04-13T13:48:57.516Z,22.44
2023-04-13T13:52:03.997Z,22.42
2023-04-13T13:54:58.702Z,22.42
2023-04-13T13:57:49.440Z,21.89
2023-04-13T14:00:37.121Z,22.01
2023-04-13T14:03:25.004Z,21.95
2023-04-13T14:06:15.533Z,21.92
2023-04-13T14:09:03.968Z,21.83
2023-04-13T14:11:51.728Z,21.74
2023-04-13T14:14:39.464Z,22.00
2023-04-13T14:17:27.320Z,22.06
2023-04-13T14:20:15.829Z,21.97
2023-04-13T14:23:03.608Z,21.66
2023-04-13T14:25:51.221Z,21.50
2023-04-13T14:28:39.399Z,21.42
2023-04-13T14:31:27.071Z,21.30
2023-04-13T14:34:14.771Z,21.32
2023-04-13T14:37:02.348Z,21.38
2023-04-13T14:39:53.164Z,21.02
2023-04-13T14:42:41.393Z,21.15
2023-04-13T14:45:29.147Z,21.45
2023-04-13T14:48:17.812Z,21.54
2023-04-13T14:51:05.574Z,21.66
2023-04-13T14:53:56.534Z,21.46
2023-04-13T14:56:44.337Z,21.07
2023-04-13T14:59:32.236Z,20.78
2023-04-13T15:02:20.443Z,21.20
2023-04-13T15:05:09.052Z,21.39
2023-04-13T15:07:56.932Z,21.17
2023-04-13T15:10:48.334Z,21.26
2023-04-13T15:13:48.090Z,20.90
2023-04-13T15:16:36.810Z,20.60
2023-04-13T15:19:24.499Z,20.74
2023-04-13T15:22:12.065Z,20.10
2023-04-13T15:25:15.955Z,20.39
2023-04-13T15:28:07.506Z,20.42
2023-04-13T15:30:55.354Z,20.32
2023-04-13T15:33:53.768Z,20.04
2023-04-13T15:36:41.866Z,20.27
2023-04-13T15:39:31.788Z,20.13
2023-04-13T15:42:21.416Z,20.09
2023-04-13T15:45:09.733Z,19.81
2023-04-13T15:47:57.562Z,19.56
2023-04-13T15:50:45.135Z,19.14
2023-04-13T15:53:33.728Z,19.25
2023-04-13T15:56:21.715Z,19.03
2023-04-13T15:59:09.397Z,18.88
2023-04-13T16:01:57.249Z,18.86
2023-04-13T16:04:47.682Z,18.76
2023-04-13T16:07:35.843Z,18.82
2023-04-13T16:10:23.480Z,18.74
2023-04-13T16:13:19.136Z,18.51
2023-04-13T16:16:06.975Z,18.54
2023-04-13T16:18:55.117Z,18.41
2023-04-13T16:21:45.675Z,18.13
2023-04-13T16:24:33.902Z,18.01
2023-04-13T16:27:22.586Z,17.66
2023-04-13T16:30:13.078Z,17.63
2023-04-13T16:33:00.773Z,17.41
2023-04-13T16:35:48.480Z,17.21
2023-04-13T16:38:36.916Z,17.13
2023-04-13T16:41:24.490Z,17.00
2023-04-13T16:44:12.202Z,16.93
2023-04-13T16:46:59.858Z,16.64
2023-04-13T16:49:47.523Z,16.75
2023-04-13T16:52:35.865Z,16.73
2023-04-13T16:55:23.701Z,16.44
2023-04-13T16:58:12.468Z,16.32
2023-04-13T17:01:00.155Z,16.06
2023-04-13T17:03:47.840Z,15.91
2023-04-13T17:06:37.814Z,15.90
2023-04-13T17:09:25.492Z,15.84
2023-04-13T17:12:13.123Z,15.73
2023-04-13T17:15:04.186Z,15.69
2023-04-13T17:17:51.872Z,15.66
2023-04-13T17:20:40.121Z,15.48
2023-04-13T17:23:27.826Z,15.46
2023-04-13T17:26:18.371Z,15.22
2023-04-13T17:29:06.769Z,15.34
2023-04-13T17:31:55.081Z,15.30
2023-04-13T17:34:44.875Z,15.21
2023-04-13T17:37:32.760Z,15.23
2023-04-13T17:40:21.003Z,15.20
2023-04-13T17:43:09.386Z,15.08
2023-04-13T17:45:57.113Z,15.05
2023-04-13T17:48:45.036Z,14.90
2023-04-13T17:51:33.759Z,14.90
2023-04-13T17:54:21.354Z,14.78
2023-04-13T17:57:13.639Z,14.64
2023-04-13T18:00:02.302Z,14.70
2023-04-13T18:02:55.431Z,14.83
2023-04-13T18:05:44.824Z,14.70
2023-04-13T18:08:32.600Z,14.48
2023-04-13T18:11:20.293Z,14.58
2023-04-13T18:14:09.341Z,14.54
2023-04-13T18:16:57.018Z,14.40
2023-04-13T18:19:44.690Z,14.27
2023-04-13T18:22:36.215Z,14.17
2023-04-13T18:25:24.082Z,13.97
2023-04-13T18:28:11.844Z,14.10
2023-04-13T18:31:03.017Z,13.72
2023-04-13T18:33:50.646Z,13.83
2023-04-13T18:36:38.236Z,13.78
2023-04-13T18:39:26.201Z,13.70
2023-04-13T18:42:13.751Z,13.52
2023-04-13T18:45:01.382Z,13.72
2023-04-13T18:47:49.090Z,13.64
2023-04-13T18:50:37.370Z,13.48
2023-04-13T18:53:25.056Z,13.77
2023-04-13T18:56:12.672Z,13.68
2023-04-13T18:59:00.490Z,13.86
2023-04-13T19:01:48.072Z,13.64
2023-04-13T19:04:35.971Z,13.47
2023-04-13T19:07:23.700Z,13.41
2023-04-13T19:10:11.677Z,13.52
2023-04-13T19:12:59.673Z,13.64
2023-04-13T19:15:47.438Z,13.47
2023-04-13T19:18:35.345Z,13.25
2023-04-13T19:21:24.523Z,13.43
2023-04-13T19:24:13.508Z,13.30
2023-04-13T19:27:01.174Z,12.95
2023-04-13T19:29:51.591Z,12.88
2023-04-13T19:32:41.067Z,12.81
2023-04-13T19:35:29.326Z,12.50
2023-04-13T19:38:17.148Z,12.54
2023-04-13T19:41:04.666Z,12.39
2023-04-13T19:43:52.550Z,12.33
2023-04-13T19:46:41.075Z,12.18
2023-04-13T19:49:28.733Z,12.07
2023-04-13T19:52:17.789Z,12.11
2023-04-13T19:55:06.539Z,11.94
2023-04-13T19:57:54.516Z,11.90
2023-04-13T20:00:42.507Z,11.71
2023-04-13T20:03:30.447Z,11.63
2023-04-13T20:06:18.756Z,11.77
2023-04-13T20:09:12.109Z,11.62
2023-04-13T20:11:59.746Z,11.57
2023-04-13T20:14:48.504Z,11.58
2023-04-13T20:17:36.268Z,11.44
2023-04-13T20:20:24.579Z,11.27
2023-04-13T20:23:12.188Z,11.22
2023-04-13T20:26:00.893Z,11.16
2023-04-13T20:28:49.589Z,10.97
2023-04-13T20:31:39.266Z,10.79
2023-04-13T20:34:28.263Z,10.34
2023-04-13T20:37:18.697Z,10.24
2023-04-13T20:40:07.258Z,10.38
2023-04-13T20:42:56.692Z,10.49
2023-04-13T20:45:47.642Z,10.38
2023-04-13T20:51:30.069Z,10.11
2023-04-13T20:54:17.746Z,10.03
2023-04-13T20:57:05.917Z,9.95
2023-04-13T20:59:54.514Z,9.91
2023-04-13T21:02:43.345Z,9.94
2023-04-13T21:05:31.125Z,9.82
2023-04-13T21:08:18.941Z,9.80
2023-04-13T21:11:06.574Z,9.84
2023-04-13T21:13:54.260Z,9.76
2023-04-13T21:16:42.134Z,9.73
2023-04-13T21:19:29.887Z,9.90
2023-04-13T21:22:19.099Z,9.97
2023-04-13T21:25:07.310Z,9.87
2023-04-13T21:27:54.878Z,9.87
2023-04-13T21:30:42.477Z,9.77
2023-04-13T21:33:30.041Z,9.58
2023-04-13T21:39:08.932Z,9.88
2023-04-13T21:41:56.532Z,9.75
2023-04-13T21:44:44.059Z,9.63
2023-04-13T21:47:32.048Z,9.63
2023-04-13T21:50:21.116Z,9.78
2023-04-13T21:53:08.754Z,9.92
2023-04-13T21:55:56.675Z,10.25
2023-04-13T21:58:45.913Z,10.51
2023-04-13T22:01:33.553Z,10.47
2023-04-13T22:04:21.421Z,10.84
2023-04-13T22:07:09.047Z,10.97
2023-04-13T22:09:58.054Z,10.94
2023-04-13T22:12:46.491Z,10.91
2023-04-13T22:15:34.251Z,11.05
2023-04-13T22:18:22.033Z,11.20
2023-04-13T22:21:09.766Z,11.28
2023-04-13T22:23:57.393Z,11.43
2023-04-13T22:26:45.324Z,11.44
2023-04-13T22:29:35.437Z,11.33
2023-04-13T22:32:23.172Z,11.60
2023-04-13T22:35:11.600Z,11.80
2023-04-13T22:37:59.258Z,11.86
2023-04-13T22:40:46.923Z,11.67
2023-04-13T22:43:34.630Z,11.64
2023-04-13T22:46:23.276Z,11.44
2023-04-13T22:49:10.978Z,11.48
2023-04-13T22:52:00.414Z,11.53
2023-04-13T22:54:48.156Z,11.44
2023-04-13T22:57:35.853Z,11.06
2023-04-13T23:00:23.842Z,11.19
2023-04-13T23:03:14.746Z,10.74
2023-04-13T23:06:05.375Z,10.43
2023-04-13T23:08:55.763Z,9.96
2023-04-13T23:11:43.516Z,10.14
2023-04-13T23:14:31.266Z,10.14
2023-04-13T23:17:18.913Z,10.17
2023-04-13T23:20:10.946Z,10.25
2023-04-13T23:22:58.597Z,10.02
2023-04-13T23:25:50.578Z,10.05
2023-04-13T23:28:38.220Z,9.90
2023-04-13T23:31:26.044Z,9.85
2023-04-13T23:34:13.934Z,9.57
2023-04-13T23:37:01.440Z,9.68
2023-04-13T23:39:49.266Z,9.70
2023-04-13T23:42:37.086Z,9.61
2023-04-13T23:45:25.414Z,9.70
2023-04-13T23:48:13.134Z,9.99
2023-04-13T23:51:00.898Z,10.07
2023-04-13T23:53:48.406Z,10.06
2023-04-13T23:56:37.237Z,9.95
2023-04-13T23:59:25.069Z,10.07
